Time;durP1;ratioP1;P1;durP2;ratioP2;P2;SDS_P1;SDS_P2;PMS_P1;PMS_P2;Temp;Humidity;BMP_temperature;BMP_pressure;BME280_temperature;BME280_humidity;BME280_pressure;Samples;Min_cycle;Max_cycle;Signal;HPM_P1;HPM_P2
2021/01/18 00:01:19;;;;;;;16.67;15.30;;;2.20;99.90;;;;;;6073444;23;20443;-75
2021/01/18 00:03:46;;;;;;;16.93;15.57;;;2.20;99.90;;;;;;6074693;23;20392;-76
2021/01/18 00:06:17;;;;;;;16.70;15.30;;;2.20;99.90;;;;;;6073425;23;20416;-76
2021/01/18 00:08:44;;;;;;;16.20;14.90;;;2.20;99.90;;;;;;6074204;23;20393;-76
2021/01/18 00:11:11;;;;;;;16.07;14.87;;;2.10;99.90;;;;;;6074566;23;20411;-76
2021/01/18 00:13:38;;;;;;;15.17;14.13;;;2.20;99.90;;;;;;6074857;23;20416;-76
2021/01/18 00:16:05;;;;;;;15.13;14.03;;;2.20;99.90;;;;;;6074781;23;20445;-75
2021/01/18 00:18:32;;;;;;;15.23;14.10;;;2.20;99.90;;;;;;6075409;23;20410;-76
2021/01/18 00:20:58;;;;;;;14.83;13.70;;;2.20;99.90;;;;;;6076172;23;20436;-76
2021/01/18 00:23:26;;;;;;;14.73;13.67;;;2.20;99.90;;;;;;6075922;23;20407;-76
2021/01/18 00:25:52;;;;;;;14.50;13.40;;;2.20;99.90;;;;;;6076921;23;20743;-76
2021/01/18 00:28:18;;;;;;;15.13;14.03;;;2.20;99.90;;;;;;6073955;23;20418;-75
2021/01/18 00:30:44;;;;;;;15.27;14.00;;;2.20;99.90;;;;;;6075985;23;20396;-76
2021/01/18 00:33:11;;;;;;;15.00;13.80;;;2.20;99.90;;;;;;6076145;23;20511;-76
2021/01/18 00:35:37;;;;;;;14.40;13.40;;;2.20;99.90;;;;;;6075916;23;20427;-76
2021/01/18 00:38:04;;;;;;;14.97;13.97;;;2.20;99.90;;;;;;6074340;23;20417;-76
2021/01/18 00:40:31;;;;;;;15.10;14.00;;;2.20;99.90;;;;;;6073756;23;20414;-76
2021/01/18 00:42:58;;;;;;;14.33;13.43;;;2.20;99.90;;;;;;6073664;23;20425;-76
2021/01/18 00:45:24;;;;;;;14.60;13.60;;;2.30;99.90;;;;;;6074370;23;20909;-75
2021/01/18 00:47:53;;;;;;;15.13;14.03;;;2.20;99.90;;;;;;6074446;23;20427;-75
2021/01/18 00:50:21;;;;;;;14.43;13.43;;;2.30;99.90;;;;;;6075475;23;20464;-75
2021/01/18 00:52:49;;;;;;;14.70;13.60;;;2.30;99.90;;;;;;6074491;23;20788;-76
2021/01/18 00:55:20;;;;;;;14.63;13.63;;;2.30;99.90;;;;;;6074213;23;20768;-76
2021/01/18 00:58:12;;;;;;;15.83;14.63;;;2.30;99.90;;;;;;6076656;23;20399;-76
2021/01/18 01:00:40;;;;;;;16.23;14.93;;;2.30;99.90;;;;;;6074671;23;20423;-76
2021/01/18 01:03:08;;;;;;;16.70;15.13;;;2.30;99.90;;;;;;6075059;23;20483;-76
2021/01/18 01:05:34;;;;;;;16.57;15.30;;;2.30;99.90;;;;;;6074633;23;20414;-76
2021/01/18 01:08:01;;;;;;;15.43;14.30;;;2.30;99.90;;;;;;6073982;23;20415;-76
2021/01/18 01:10:30;;;;;;;15.70;14.53;;;2.30;99.90;;;;;;6074086;23;20422;-76
2021/01/18 01:12:58;;;;;;;16.17;15.03;;;2.30;99.90;;;;;;6074607;23;20608;-76
2021/01/18 01:15:26;;;;;;;16.33;15.10;;;2.30;99.90;;;;;;6075520;23;20399;-77
2021/01/18 01:17:52;;;;;;;16.13;14.93;;;2.30;99.90;;;;;;6074782;23;20454;-76
2021/01/18 01:20:20;;;;;;;16.67;15.37;;;2.20;99.90;;;;;;6073576;23;20426;-76
2021/01/18 01:22:46;;;;;;;15.63;14.63;;;2.20;99.90;;;;;;6072876;23;20865;-76
2021/01/18 01:25:14;;;;;;;16.53;15.23;;;2.20;99.90;;;;;;6075197;23;20400;-75
2021/01/18 01:27:42;;;;;;;16.80;15.50;;;2.20;99.90;;;;;;6073740;23;20426;-76
2021/01/18 01:30:11;;;;;;;15.40;14.37;;;2.20;99.90;;;;;;6074037;23;20423;-76
2021/01/18 01:32:39;;;;;;;16.80;15.60;;;2.20;99.90;;;;;;6075348;23;20407;-76
2021/01/18 01:35:07;;;;;;;16.33;15.17;;;2.10;99.90;;;;;;6073442;23;20419;-76
2021/01/18 01:37:34;;;;;;;16.07;14.77;;;2.10;99.90;;;;;;6074933;23;20449;-76
2021/01/18 01:40:00;;;;;;;15.93;14.77;;;2.10;99.90;;;;;;6074847;23;20471;-76
2021/01/18 01:42:27;;;;;;;16.10;14.80;;;2.10;99.90;;;;;;6073118;23;20829;-76
2021/01/18 01:44:53;;;;;;;15.97;14.87;;;2.10;99.90;;;;;;6073939;23;20920;-76
2021/01/18 01:47:26;;;;;;;16.10;14.87;;;2.10;99.90;;;;;;6074018;23;20424;-76
2021/01/18 01:49:54;;;;;;;15.77;14.57;;;2.10;99.90;;;;;;6073358;23;20452;-76
2021/01/18 01:52:21;;;;;;;15.73;14.67;;;2.20;99.90;;;;;;6073522;23;20440;-76
2021/01/18 01:54:51;;;;;;;16.10;14.80;;;2.10;99.90;;;;;;6073870;23;20420;-76
2021/01/18 01:57:17;;;;;;;15.70;14.67;;;2.10;99.90;;;;;;6075569;23;20997;-76
2021/01/18 01:59:44;;;;;;;15.30;14.30;;;2.10;99.90;;;;;;6073043;23;20419;-76
2021/01/18 02:02:11;;;;;;;15.63;14.40;;;2.10;99.90;;;;;;6073386;23;20430;-76
2021/01/18 02:04:38;;;;;;;15.60;14.40;;;2.10;99.90;;;;;;6075286;23;20387;-76
2021/01/18 02:07:23;;;;;;;15.50;14.30;;;2.10;99.90;;;;;;6072843;23;20422;-76
2021/01/18 02:09:50;;;;;;;16.40;15.20;;;2.10;99.90;;;;;;6072831;23;20407;-76
2021/01/18 02:12:18;;;;;;;15.37;14.30;;;2.10;99.90;;;;;;6072227;23;20446;-76
2021/01/18 02:14:59;;;;;;;15.53;14.53;;;2.20;99.90;;;;;;6074145;23;20451;-76
2021/01/18 02:17:35;;;;;;;15.20;14.20;;;2.20;99.90;;;;;;6074495;23;20451;-77
2021/01/18 02:20:41;;;;;;;15.03;14.03;;;2.20;99.90;;;;;;6070933;23;20433;-76
2021/01/18 02:23:35;;;;;;;15.57;14.47;;;2.20;99.90;;;;;;6073633;23;20411;-76
2021/01/18 02:26:05;;;;;;;15.90;14.63;;;2.20;99.90;;;;;;6074808;23;20419;-76
2021/01/18 02:28:43;;;;;;;16.17;14.87;;;2.20;99.90;;;;;;6072786;23;20434;-75
2021/01/18 02:31:38;;;;;;;15.33;14.27;;;2.20;99.90;;;;;;6073131;23;20931;-76
2021/01/18 02:34:40;;;;;;;15.77;14.63;;;2.20;99.90;;;;;;6072735;23;20890;-76
2021/01/18 02:37:22;;;;;;;15.03;14.03;;;2.20;99.90;;;;;;6073105;23;20467;-76
2021/01/18 02:39:54;;;;;;;15.43;14.33;;;2.20;99.90;;;;;;6073294;23;20418;-76
2021/01/18 02:42:27;;;;;;;14.90;13.80;;;2.20;99.90;;;;;;6074010;23;20419;-76
2021/01/18 02:44:58;;;;;;;15.30;14.30;;;2.30;99.90;;;;;;6074910;23;20389;-76
2021/01/18 02:47:25;;;;;;;16.10;14.90;;;2.20;99.90;;;;;;6074103;23;20388;-76
2021/01/18 02:49:54;;;;;;;15.70;14.60;;;2.20;99.90;;;;;;6073978;23;20388;-76
2021/01/18 02:52:21;;;;;;;15.67;14.57;;;2.20;99.90;;;;;;6074533;23;20416;-76
2021/01/18 02:54:47;;;;;;;16.13;14.83;;;2.30;99.90;;;;;;6073227;23;20415;-76
2021/01/18 02:57:14;;;;;;;15.33;14.20;;;2.20;99.90;;;;;;6072975;23;20494;-76
2021/01/18 02:59:43;;;;;;;15.20;14.20;;;2.20;99.90;;;;;;6072476;23;20865;-76
2021/01/18 03:02:23;;;;;;;15.60;14.60;;;2.20;99.90;;;;;;6074091;23;20415;-76
2021/01/18 03:05:12;;;;;;;15.63;14.47;;;2.30;99.90;;;;;;6073055;23;20404;-76
2021/01/18 03:07:46;;;;;;;15.30;14.17;;;2.30;99.90;;;;;;6074208;23;20375;-76
2021/01/18 03:10:20;;;;;;;15.93;14.83;;;2.20;99.90;;;;;;6074031;23;20391;-76
2021/01/18 03:12:51;;;;;;;15.57;14.57;;;2.20;99.90;;;;;;6075174;23;20476;-76
2021/01/18 03:15:20;;;;;;;15.57;14.47;;;2.20;99.90;;;;;;6073441;23;20419;-76
2021/01/18 03:17:49;;;;;;;15.40;14.47;;;2.20;99.90;;;;;;6074435;23;20436;-76
2021/01/18 03:20:16;;;;;;;15.93;14.73;;;2.20;99.90;;;;;;6072588;23;20418;-76
2021/01/18 03:22:43;;;;;;;15.13;14.13;;;2.20;99.90;;;;;;6074417;23;20431;-76
2021/01/18 03:25:10;;;;;;;15.07;13.97;;;2.20;99.90;;;;;;6072268;23;20411;-76
2021/01/18 03:27:50;;;;;;;15.27;14.17;;;2.20;99.90;;;;;;6074354;23;20474;-76
2021/01/18 03:30:19;;;;;;;15.63;14.43;;;2.30;99.90;;;;;;6072547;23;20925;-76
2021/01/18 03:32:48;;;;;;;14.87;13.90;;;2.20;99.90;;;;;;6072689;23;20466;-76
2021/01/18 03:35:15;;;;;;;15.97;14.77;;;2.30;99.90;;;;;;6072581;23;20449;-76
2021/01/18 03:37:41;;;;;;;14.87;13.97;;;2.20;99.90;;;;;;6072440;23;20766;-76
2021/01/18 03:40:09;;;;;;;14.70;13.77;;;2.20;99.90;;;;;;6074573;23;20402;-76
2021/01/18 03:42:35;;;;;;;16.10;14.90;;;2.20;99.90;;;;;;6074381;23;20422;-76
2021/01/18 03:45:02;;;;;;;14.80;13.90;;;2.20;99.90;;;;;;6072673;23;20389;-76
2021/01/18 03:47:28;;;;;;;15.67;14.67;;;2.20;99.90;;;;;;6071600;23;20429;-76
2021/01/18 03:49:54;;;;;;;14.90;13.90;;;2.20;99.90;;;;;;6066667;23;20468;-75
2021/01/18 03:52:20;;;;;;;14.70;13.70;;;2.20;99.90;;;;;;6066333;23;20783;-75
2021/01/18 03:54:47;;;;;;;15.20;14.20;;;2.20;99.90;;;;;;6066796;23;20423;-78
2021/01/18 03:57:14;;;;;;;14.17;13.33;;;2.20;99.90;;;;;;6068098;23;20470;-75
2021/01/18 03:59:41;;;;;;;14.37;13.43;;;2.30;99.90;;;;;;6066464;23;20788;-76
2021/01/18 04:02:07;;;;;;;14.43;13.50;;;2.20;99.90;;;;;;6068128;23;20465;-78
2021/01/18 04:04:33;;;;;;;14.37;13.37;;;2.20;99.90;;;;;;6068540;23;20729;-74
2021/01/18 04:06:59;;;;;;;14.10;13.20;;;2.30;99.90;;;;;;6068283;23;20492;-75
2021/01/18 04:09:26;;;;;;;14.90;13.90;;;2.20;99.90;;;;;;6067967;23;20393;-75
2021/01/18 04:11:52;;;;;;;14.53;13.63;;;2.20;99.90;;;;;;6068130;23;20422;-76
2021/01/18 04:14:19;;;;;;;14.30;13.30;;;2.30;99.90;;;;;;6066683;23;20472;-75
2021/01/18 04:16:45;;;;;;;13.67;12.77;;;2.30;99.90;;;;;;6066565;23;20835;-75
2021/01/18 04:19:11;;;;;;;14.90;13.93;;;2.30;99.90;;;;;;6066892;23;20766;-75
2021/01/18 04:21:38;;;;;;;14.77;13.77;;;2.30;99.90;;;;;;6066679;23;20510;-75
2021/01/18 04:24:06;;;;;;;14.57;13.67;;;2.30;99.90;;;;;;6066630;23;20419;-77
2021/01/18 04:26:32;;;;;;;14.53;13.47;;;2.30;99.90;;;;;;6066345;23;20560;-77
2021/01/18 04:28:58;;;;;;;14.63;13.73;;;2.30;99.90;;;;;;6064773;23;20481;-76
2021/01/18 04:31:26;;;;;;;14.70;13.73;;;2.20;99.90;;;;;;6065343;23;20759;-76
2021/01/18 04:33:52;;;;;;;15.30;14.30;;;2.20;99.90;;;;;;6066247;23;20416;-77
2021/01/18 04:36:18;;;;;;;15.20;14.20;;;2.20;99.90;;;;;;6067570;23;20431;-77
2021/01/18 04:38:44;;;;;;;14.10;13.30;;;2.20;99.90;;;;;;6065697;23;20425;-77
2021/01/18 04:41:11;;;;;;;15.60;14.60;;;2.20;99.90;;;;;;6066098;23;20447;-79
2021/01/18 04:43:39;;;;;;;15.80;14.80;;;2.20;99.90;;;;;;6067608;23;20423;-76
2021/01/18 04:46:09;;;;;;;16.13;14.83;;;2.30;99.90;;;;;;6067583;23;20482;-75
2021/01/18 04:48:38;;;;;;;16.03;14.97;;;2.30;99.90;;;;;;6072731;23;20656;-75
2021/01/18 04:51:06;;;;;;;15.77;14.67;;;2.30;99.90;;;;;;6075509;23;20440;-76
2021/01/18 04:53:33;;;;;;;15.93;14.73;;;2.30;99.90;;;;;;6073229;23;20444;-77
2021/01/18 04:56:16;;;;;;;16.50;15.30;;;2.20;99.90;;;;;;6076016;23;20929;-76
2021/01/18 04:58:46;;;;;;;17.37;16.17;;;2.20;99.90;;;;;;6071687;23;20467;-74
2021/01/18 05:01:16;;;;;;;16.53;15.43;;;2.20;99.90;;;;;;6069318;23;20781;-75
2021/01/18 05:03:45;;;;;;;17.57;16.27;;;2.20;99.90;;;;;;6069709;23;20434;-75
2021/01/18 05:06:43;;;;;;;17.20;16.10;;;2.20;99.90;;;;;;6069314;23;20888;-75
2021/01/18 05:09:24;;;;;;;18.23;16.50;;;2.30;99.90;;;;;;6071367;23;20400;-75
2021/01/18 05:11:51;;;;;;;16.90;15.77;;;2.30;99.90;;;;;;6070746;23;20441;-75
2021/01/18 05:14:18;;;;;;;16.33;15.30;;;2.30;99.90;;;;;;6070745;23;20392;-75
2021/01/18 05:16:46;;;;;;;16.27;15.27;;;2.30;99.90;;;;;;6069062;23;20435;-75
2021/01/18 05:19:14;;;;;;;17.07;15.77;;;2.30;99.90;;;;;;6068363;23;20415;-75
2021/01/18 05:21:41;;;;;;;16.30;15.10;;;2.30;99.90;;;;;;6072109;23;20427;-75
2021/01/18 05:24:09;;;;;;;16.17;15.07;;;2.30;99.90;;;;;;6070641;23;20425;-75
2021/01/18 05:26:36;;;;;;;16.07;14.83;;;2.30;99.90;;;;;;6072418;23;20447;-75
2021/01/18 05:29:03;;;;;;;15.90;14.70;;;2.30;99.90;;;;;;6071505;23;20392;-75
2021/01/18 05:31:38;;;;;;;14.93;13.93;;;2.30;99.90;;;;;;6070166;23;20775;-75
2021/01/18 05:34:05;;;;;;;15.17;14.10;;;2.30;99.90;;;;;;6071328;23;20396;-75
2021/01/18 05:36:38;;;;;;;15.20;14.00;;;2.30;99.90;;;;;;6070690;23;20438;-75
2021/01/18 05:39:13;;;;;;;15.37;14.17;;;2.30;99.90;;;;;;6069541;23;20422;-75
2021/01/18 05:41:40;;;;;;;15.47;14.27;;;2.30;99.90;;;;;;6069223;23;20444;-75
2021/01/18 05:44:07;;;;;;;14.90;13.80;;;2.30;99.90;;;;;;6071309;23;20486;-75
2021/01/18 05:46:35;;;;;;;15.73;14.60;;;2.30;99.90;;;;;;6071566;23;20475;-75
2021/01/18 05:49:10;;;;;;;14.67;13.70;;;2.30;99.90;;;;;;6068721;23;20419;-76
2021/01/18 05:51:38;;;;;;;15.33;14.13;;;2.30;99.90;;;;;;6069701;23;20439;-75
2021/01/18 05:54:06;;;;;;;15.50;14.20;;;2.20;99.90;;;;;;6069858;23;20423;-75
2021/01/18 05:56:44;;;;;;;15.57;14.30;;;2.20;99.90;;;;;;6069871;23;20451;-75
2021/01/18 05:59:19;;;;;;;15.93;14.73;;;2.20;99.90;;;;;;6070992;23;20874;-75
2021/01/18 06:01:47;;;;;;;14.90;13.80;;;2.20;99.90;;;;;;6069712;23;20439;-75
2021/01/18 06:04:16;;;;;;;15.97;14.50;;;2.20;99.90;;;;;;6069334;23;20930;-75
2021/01/18 06:06:44;;;;;;;16.57;15.17;;;2.20;99.90;;;;;;6069327;23;20415;-75
2021/01/18 06:09:11;;;;;;;16.20;14.97;;;2.10;99.90;;;;;;6070406;23;20897;-75
2021/01/18 06:11:37;;;;;;;15.20;14.07;;;2.10;99.90;;;;;;6069168;23;20437;-75
2021/01/18 06:14:05;;;;;;;15.90;14.63;;;2.00;99.90;;;;;;6070315;23;20400;-75
2021/01/18 06:16:34;;;;;;;15.83;14.53;;;2.00;99.90;;;;;;6070820;23;20503;-75
2021/01/18 06:19:02;;;;;;;16.50;14.63;;;2.00;99.90;;;;;;6070863;23;20391;-75
2021/01/18 06:21:39;;;;;;;16.20;14.67;;;2.00;99.90;;;;;;6069084;23;20900;-75
2021/01/18 06:24:17;;;;;;;15.20;14.03;;;2.10;99.90;;;;;;6068952;23;20408;-75
2021/01/18 06:26:44;;;;;;;15.47;14.27;;;2.10;99.90;;;;;;6070304;23;20581;-75
2021/01/18 06:29:11;;;;;;;14.77;13.77;;;2.20;99.90;;;;;;6068837;23;20929;-75
2021/01/18 06:31:46;;;;;;;15.60;14.30;;;2.20;99.90;;;;;;6070061;23;20760;-75
2021/01/18 06:34:27;;;;;;;15.17;13.77;;;2.20;99.90;;;;;;6070185;23;20399;-75
2021/01/18 06:36:55;;;;;;;16.67;15.07;;;2.20;99.90;;;;;;6068835;23;20442;-75
2021/01/18 06:39:24;;;;;;;15.60;14.30;;;2.20;99.90;;;;;;6067828;23;20458;-75
2021/01/18 06:41:57;;;;;;;15.80;14.60;;;2.20;99.90;;;;;;6068735;23;20473;-75
2021/01/18 06:44:34;;;;;;;15.73;14.60;;;2.20;99.90;;;;;;6068871;23;20412;-75
2021/01/18 06:47:00;;;;;;;15.93;14.77;;;2.20;99.90;;;;;;6070340;23;20395;-75
2021/01/18 06:49:27;;;;;;;15.70;14.63;;;2.20;99.90;;;;;;6070154;23;20398;-76
2021/01/18 06:51:58;;;;;;;16.10;14.77;;;2.20;99.90;;;;;;6068974;23;20444;-75
2021/01/18 06:54:28;;;;;;;17.27;15.80;;;2.20;99.90;;;;;;6068738;23;20423;-75
2021/01/18 06:57:02;;;;;;;15.87;14.77;;;2.20;99.90;;;;;;6070516;23;20426;-75
2021/01/18 06:59:49;;;;;;;17.07;15.60;;;2.20;99.90;;;;;;6069767;23;20381;-75
2021/01/18 07:02:22;;;;;;;16.40;15.10;;;2.20;99.90;;;;;;6068962;23;20774;-75
2021/01/18 07:04:50;;;;;;;16.10;14.90;;;2.20;99.90;;;;;;6070521;23;20464;-76
2021/01/18 07:07:24;;;;;;;16.27;15.10;;;2.20;99.90;;;;;;6069938;23;20415;-75
2021/01/18 07:09:57;;;;;;;15.37;14.27;;;2.20;99.90;;;;;;6069937;23;20409;-75
2021/01/18 07:12:25;;;;;;;16.53;15.20;;;2.20;99.90;;;;;;6070352;23;20805;-75
2021/01/18 07:14:57;;;;;;;16.73;15.43;;;2.20;99.90;;;;;;6070522;23;20449;-75
2021/01/18 07:17:38;;;;;;;16.23;14.93;;;2.20;99.90;;;;;;6068813;23;20437;-76
2021/01/18 07:20:12;;;;;;;15.57;14.47;;;2.30;99.90;;;;;;6066854;23;20407;-76
2021/01/18 07:22:52;;;;;;;15.90;14.70;;;2.30;99.90;;;;;;6068123;23;20435;-75
2021/01/18 07:25:22;;;;;;;15.60;14.30;;;2.30;99.90;;;;;;6070322;23;20405;-75
2021/01/18 07:27:52;;;;;;;14.97;13.77;;;2.30;99.90;;;;;;6067897;23;20787;-75
2021/01/18 07:30:19;;;;;;;15.93;14.83;;;2.30;99.90;;;;;;6070213;23;20389;-76
2021/01/18 07:32:45;;;;;;;15.43;14.33;;;2.30;99.90;;;;;;6068836;23;20429;-75
2021/01/18 07:35:12;;;;;;;16.13;14.83;;;2.40;99.90;;;;;;6068402;23;20804;-75
2021/01/18 07:37:39;;;;;;;15.73;14.53;;;2.40;99.90;;;;;;6069358;23;20478;-75
2021/01/18 07:40:13;;;;;;;15.30;14.27;;;2.50;99.90;;;;;;6068215;23;20914;-75
2021/01/18 07:42:41;;;;;;;15.70;14.60;;;2.50;99.90;;;;;;6068127;23;20442;-75
2021/01/18 07:45:16;;;;;;;15.67;14.67;;;2.50;99.90;;;;;;6068193;23;20422;-75
2021/01/18 07:48:07;;;;;;;15.93;14.83;;;2.60;99.90;;;;;;6068478;23;20893;-75
2021/01/18 07:50:36;;;;;;;15.70;14.60;;;2.60;99.90;;;;;;6067991;23;20479;-76
2021/01/18 07:53:04;;;;;;;15.47;14.17;;;2.70;99.90;;;;;;6068233;23;20419;-75
2021/01/18 07:55:31;;;;;;;15.43;14.30;;;2.70;99.90;;;;;;6068730;23;20418;-75
2021/01/18 07:58:15;;;;;;;14.77;13.77;;;2.70;99.90;;;;;;6068457;23;20801;-76
2021/01/18 08:00:42;;;;;;;15.40;14.30;;;2.80;99.90;;;;;;6070290;23;20466;-75
2021/01/18 08:03:24;;;;;;;14.60;13.50;;;2.80;99.90;;;;;;6069611;23;20772;-75
2021/01/18 08:06:08;;;;;;;15.00;13.90;;;2.90;99.90;;;;;;6070492;23;20379;-76
2021/01/18 08:08:35;;;;;;;15.03;14.03;;;2.90;99.90;;;;;;6067441;23;20430;-75
2021/01/18 08:11:04;;;;;;;16.20;15.07;;;2.90;99.90;;;;;;6068653;23;20435;-75
2021/01/18 08:13:42;;;;;;;16.13;15.03;;;2.80;99.90;;;;;;6070260;23;20391;-75
2021/01/18 08:16:21;;;;;;;15.77;14.67;;;2.80;99.90;;;;;;6069504;23;20438;-75
2021/01/18 08:18:56;;;;;;;15.50;14.50;;;2.90;99.90;;;;;;6068126;23;20418;-75
2021/01/18 08:21:45;;;;;;;15.47;14.17;;;2.90;99.90;;;;;;6069196;23;20998;-75
2021/01/18 08:24:15;;;;;;;15.17;14.10;;;2.90;99.90;;;;;;6068265;23;20437;-75
2021/01/18 08:26:55;;;;;;;14.80;13.90;;;3.00;99.90;;;;;;6070064;23;20390;-75
2021/01/18 08:29:39;;;;;;;14.87;13.87;;;3.00;99.90;;;;;;6069874;23;20386;-75
2021/01/18 08:32:39;;;;;;;14.63;13.73;;;3.00;99.90;;;;;;6070299;23;20421;-75
2021/01/18 08:35:08;;;;;;;14.43;13.53;;;3.10;99.90;;;;;;5960811;24;20442;-75
2021/01/18 08:37:36;;;;;;;15.20;14.20;;;3.10;99.90;;;;;;5984652;24;20442;-75
2021/01/18 08:40:07;;;;;;;16.13;14.97;;;3.20;99.90;;;;;;6025784;23;20408;-76
2021/01/18 08:42:35;;;;;;;13.97;12.87;;;3.20;99.90;;;;;;6070295;23;21010;-75
2021/01/18 08:45:08;;;;;;;14.37;13.37;;;3.20;99.90;;;;;;6071683;23;20391;-75
2021/01/18 08:47:39;;;;;;;13.70;12.60;;;3.20;99.90;;;;;;6072306;23;20381;-75
2021/01/18 08:50:20;;;;;;;14.60;13.50;;;3.20;99.90;;;;;;6070206;23;20433;-75
2021/01/18 08:52:47;;;;;;;14.43;13.30;;;3.20;99.90;;;;;;6070073;23;20994;-75
2021/01/18 08:55:43;;;;;;;13.73;12.73;;;3.20;99.90;;;;;;6069859;23;20419;-75
2021/01/18 08:58:10;;;;;;;14.87;13.43;;;3.20;99.90;;;;;;6069635;23;20490;-75
2021/01/18 09:00:45;;;;;;;14.03;12.93;;;3.20;99.90;;;;;;6070178;23;20486;-76
2021/01/18 09:03:16;;;;;;;14.50;13.50;;;3.20;99.90;;;;;;6071686;23;20418;-76
2021/01/18 09:05:42;;;;;;;14.23;13.13;;;3.20;99.90;;;;;;6069523;23;20471;-75
2021/01/18 09:08:09;;;;;;;14.73;13.73;;;3.30;99.90;;;;;;6070230;23;20892;-76
2021/01/18 09:10:35;;;;;;;14.77;13.87;;;3.30;99.90;;;;;;6069160;23;20446;-75
2021/01/18 09:13:04;;;;;;;14.70;13.80;;;3.30;99.90;;;;;;6069908;23;20913;-75
2021/01/18 09:15:31;;;;;;;14.43;13.50;;;3.40;99.90;;;;;;6071640;23;20398;-75
2021/01/18 09:18:11;;;;;;;15.23;14.07;;;3.40;99.90;;;;;;6071624;23;20438;-75
2021/01/18 09:20:39;;;;;;;14.50;13.50;;;3.40;99.90;;;;;;6069942;23;20414;-76
2021/01/18 09:23:07;;;;;;;14.50;13.50;;;3.50;99.90;;;;;;6071575;23;20380;-76
2021/01/18 09:25:34;;;;;;;14.47;13.50;;;3.50;99.90;;;;;;6069289;23;20449;-76
2021/01/18 09:28:05;;;;;;;14.73;13.53;;;3.50;99.90;;;;;;6067735;23;20417;-75
2021/01/18 09:30:31;;;;;;;14.93;14.03;;;3.50;99.90;;;;;;6069781;23;20707;-76
2021/01/18 09:33:00;;;;;;;14.60;13.50;;;3.50;99.90;;;;;;6070932;23;20394;-75
2021/01/18 09:35:27;;;;;;;14.13;13.00;;;3.50;99.90;;;;;;6069360;23;20981;-75
2021/01/18 09:37:55;;;;;;;14.63;13.47;;;3.50;99.90;;;;;;6070801;23;20772;-75
2021/01/18 09:40:21;;;;;;;14.87;13.77;;;3.60;99.90;;;;;;6068955;23;20455;-76
2021/01/18 09:42:52;;;;;;;14.53;13.50;;;3.60;99.90;;;;;;6069114;23;20443;-75
2021/01/18 09:45:19;;;;;;;14.73;13.70;;;3.70;99.90;;;;;;6070365;23;20454;-75
2021/01/18 09:47:45;;;;;;;13.80;12.90;;;3.70;99.90;;;;;;6071235;23;20392;-75
2021/01/18 09:50:15;;;;;;;13.87;12.90;;;3.80;99.90;;;;;;6070438;23;20395;-75
2021/01/18 09:52:43;;;;;;;15.57;14.40;;;3.90;99.90;;;;;;6069774;23;20437;-75
2021/01/18 09:55:15;;;;;;;14.67;13.77;;;3.90;99.90;;;;;;6071675;23;20401;-75
2021/01/18 09:57:45;;;;;;;15.30;14.20;;;4.00;99.90;;;;;;6071813;23;20422;-75
2021/01/18 10:00:14;;;;;;;14.37;13.37;;;4.10;99.90;;;;;;6069705;23;20419;-75
2021/01/18 10:02:43;;;;;;;14.37;13.07;;;4.10;99.90;;;;;;6070032;23;20449;-75
2021/01/18 10:05:19;;;;;;;14.83;13.73;;;4.20;99.90;;;;;;6071139;23;20400;-75
2021/01/18 10:07:48;;;;;;;14.30;13.30;;;4.20;99.90;;;;;;6071290;23;20151;-75
2021/01/18 10:10:15;;;;;;;14.30;13.30;;;4.20;99.90;;;;;;6070893;23;20225;-76
2021/01/18 10:12:49;;;;;;;14.90;13.73;;;4.30;99.90;;;;;;6071468;23;20425;-75
2021/01/18 10:15:22;;;;;;;14.23;13.33;;;4.40;99.90;;;;;;6069622;23;20407;-75
2021/01/18 10:17:49;;;;;;;14.07;13.07;;;4.40;99.90;;;;;;6068884;23;20442;-75
2021/01/18 10:20:22;;;;;;;14.93;14.00;;;4.40;99.90;;;;;;6068664;23;20897;-75
2021/01/18 10:22:49;;;;;;;15.10;14.10;;;4.40;99.90;;;;;;6070153;23;20537;-75
2021/01/18 10:25:16;;;;;;;15.27;14.07;;;4.30;99.90;;;;;;6070961;23;20171;-75
2021/01/18 10:27:50;;;;;;;14.80;13.77;;;4.30;99.90;;;;;;6071093;23;20197;-75
2021/01/18 10:30:20;;;;;;;14.03;13.07;;;4.20;99.90;;;;;;6070052;23;20237;-75
2021/01/18 10:32:47;;;;;;;14.63;13.63;;;4.20;99.90;;;;;;6071316;23;20415;-75
2021/01/18 10:35:21;;;;;;;14.57;13.67;;;4.30;99.90;;;;;;6070410;23;20177;-75
2021/01/18 10:37:47;;;;;;;15.00;13.80;;;4.40;99.90;;;;;;6069640;23;20801;-76
2021/01/18 10:40:19;;;;;;;14.80;13.57;;;4.40;99.90;;;;;;6069197;23;20697;-75
2021/01/18 10:42:50;;;;;;;14.57;13.53;;;4.50;99.90;;;;;;6071578;23;20198;-75
2021/01/18 10:45:19;;;;;;;14.57;13.47;;;4.60;99.90;;;;;;6069405;23;20496;-75
2021/01/18 10:47:56;;;;;;;14.10;13.30;;;4.60;99.90;;;;;;6069885;23;20179;-76
2021/01/18 10:50:25;;;;;;;14.53;13.30;;;4.70;99.90;;;;;;6071343;23;20190;-76
2021/01/18 10:53:04;;;;;;;14.80;13.80;;;4.70;99.90;;;;;;6069490;23;20195;-75
2021/01/18 10:55:30;;;;;;;14.13;13.13;;;4.70;99.90;;;;;;6069767;23;20175;-77
2021/01/18 10:57:56;;;;;;;14.57;13.63;;;4.70;99.90;;;;;;6071670;23;20183;-76
2021/01/18 11:00:26;;;;;;;14.67;13.53;;;4.70;99.90;;;;;;6070721;23;20175;-76
2021/01/18 11:02:55;;;;;;;14.00;13.10;;;4.70;99.90;;;;;;6070893;23;20190;-76
2021/01/18 11:05:29;;;;;;;15.27;14.07;;;4.90;99.90;;;;;;6069457;23;20210;-76
2021/01/18 11:07:57;;;;;;;14.33;13.43;;;5.00;99.90;;;;;;6071525;23;20486;-76
2021/01/18 11:10:24;;;;;;;14.43;13.43;;;5.00;99.90;;;;;;6070888;23;20171;-76
2021/01/18 11:13:03;;;;;;;14.77;13.77;;;5.00;99.90;;;;;;6070745;23;20191;-76
2021/01/18 11:15:33;;;;;;;14.67;13.77;;;5.10;99.90;;;;;;6070848;23;20159;-75
2021/01/18 11:18:00;;;;;;;15.17;14.17;;;5.00;99.90;;;;;;6070967;23;20209;-76
2021/01/18 11:20:28;;;;;;;15.23;14.23;;;5.00;99.90;;;;;;6069465;23;20174;-76
2021/01/18 11:22:55;;;;;;;14.13;13.10;;;5.00;99.90;;;;;;6070016;23;20206;-76
2021/01/18 11:25:22;;;;;;;15.23;14.00;;;4.80;99.90;;;;;;6071747;23;20167;-75
2021/01/18 11:27:48;;;;;;;14.53;13.47;;;4.80;99.90;;;;;;6070245;23;20182;-76
2021/01/18 11:30:15;;;;;;;14.77;13.67;;;4.70;99.90;;;;;;6067834;23;20178;-76
2021/01/18 11:32:42;;;;;;;14.40;13.50;;;4.70;99.90;;;;;;6070738;23;20192;-76
2021/01/18 11:35:10;;;;;;;14.23;13.23;;;4.70;99.90;;;;;;6069510;23;20263;-76
2021/01/18 11:37:37;;;;;;;15.00;14.00;;;4.60;99.90;;;;;;6066644;23;20198;-76
2021/01/18 11:40:06;;;;;;;14.40;13.50;;;4.60;99.90;;;;;;6067993;23;20178;-75
2021/01/18 11:42:33;;;;;;;14.53;13.63;;;4.60;99.90;;;;;;6068977;23;20198;-76
2021/01/18 11:45:00;;;;;;;15.03;13.93;;;4.60;99.90;;;;;;6069006;23;20175;-75
2021/01/18 11:47:33;;;;;;;14.10;13.20;;;4.60;99.90;;;;;;6070221;23;20174;-75
2021/01/18 11:49:59;;;;;;;14.97;13.97;;;4.60;99.90;;;;;;6069739;23;20164;-75
2021/01/18 11:52:25;;;;;;;15.53;14.43;;;4.70;99.90;;;;;;6070872;23;20210;-76
2021/01/18 11:54:53;;;;;;;14.87;13.87;;;4.80;99.90;;;;;;6070071;23;20179;-76
2021/01/18 11:57:19;;;;;;;15.43;14.23;;;4.80;99.90;;;;;;6071162;23;20190;-76
2021/01/18 11:59:45;;;;;;;15.23;14.10;;;4.90;99.90;;;;;;6069021;23;20522;-76
2021/01/18 12:02:12;;;;;;;14.40;13.40;;;5.00;99.90;;;;;;6069519;23;20198;-75
2021/01/18 12:04:38;;;;;;;15.33;14.13;;;5.10;99.90;;;;;;6071186;23;20564;-75
2021/01/18 12:07:05;;;;;;;16.23;15.13;;;5.10;99.90;;;;;;6071682;23;20163;-75
2021/01/18 12:09:32;;;;;;;14.27;13.37;;;5.20;99.90;;;;;;6071304;23;20206;-75
2021/01/18 12:12:00;;;;;;;14.47;13.50;;;5.20;99.90;;;;;;6072841;23;20195;-76
2021/01/18 12:14:27;;;;;;;15.17;13.97;;;5.20;99.90;;;;;;6071435;23;20175;-76
2021/01/18 12:16:53;;;;;;;14.83;13.83;;;5.20;99.90;;;;;;6072311;23;20194;-76
2021/01/18 12:19:19;;;;;;;14.90;13.80;;;5.20;99.90;;;;;;6072528;23;20171;-76
2021/01/18 12:21:45;;;;;;;15.03;13.97;;;5.30;99.90;;;;;;6072882;23;20202;-75
2021/01/18 12:24:12;;;;;;;15.63;14.30;;;5.20;99.90;;;;;;6073350;23;20170;-76
2021/01/18 12:26:38;;;;;;;14.40;13.40;;;5.20;99.90;;;;;;6073619;23;20170;-75
2021/01/18 12:29:05;;;;;;;14.40;13.30;;;5.10;99.90;;;;;;6070889;23;20230;-76
2021/01/18 12:31:34;;;;;;;14.60;13.53;;;5.20;99.90;;;;;;6072463;23;20651;-75
2021/01/18 12:34:00;;;;;;;15.00;13.70;;;5.20;99.90;;;;;;6070939;23;20178;-75
2021/01/18 12:36:27;;;;;;;14.40;13.50;;;5.20;99.90;;;;;;6071685;23;20179;-76
2021/01/18 12:38:53;;;;;;;14.00;13.07;;;5.30;99.90;;;;;;6072905;23;20689;-76
2021/01/18 12:41:19;;;;;;;14.13;13.17;;;5.30;99.90;;;;;;6070995;23;20190;-76
2021/01/18 12:43:45;;;;;;;14.60;13.50;;;5.30;99.90;;;;;;6071056;23;20179;-76
2021/01/18 12:46:17;;;;;;;15.00;13.80;;;5.30;99.90;;;;;;6072705;23;20623;-76
2021/01/18 12:48:43;;;;;;;14.57;13.57;;;5.20;99.90;;;;;;6073065;23;20207;-75
2021/01/18 12:51:14;;;;;;;14.13;13.03;;;5.20;99.90;;;;;;6072805;23;20520;-76